createdAt,value
2023-04-06T00:02:23.974Z,3.70
2023-04-06T00:04:52.618Z,3.70
2023-04-06T00:07:20.781Z,3.80
2023-04-06T00:09:49.232Z,3.80
2023-04-06T00:12:17.826Z,3.80
2023-04-06T00:14:46.203Z,3.90
2023-04-06T00:17:14.373Z,4.00
2023-04-06T00:19:43.923Z,4.00
2023-04-06T00:22:12.380Z,4.10
2023-04-06T00:24:41.078Z,4.00
2023-04-06T00:27:09.223Z,3.80
2023-04-06T00:29:37.771Z,3.80
2023-04-06T00:32:06.633Z,3.90
2023-04-06T00:34:34.800Z,4.10
2023-04-06T00:37:04.359Z,4.10
2023-04-06T00:39:32.464Z,4.20
2023-04-06T00:42:01.231Z,4.20
2023-04-06T00:44:29.444Z,4.20
2023-04-06T00:46:57.956Z,4.10
2023-04-06T00:49:26.253Z,3.70
2023-04-06T00:51:54.786Z,3.40
2023-04-06T00:54:24.308Z,3.20
2023-04-06T00:56:53.157Z,3.00
2023-04-06T00:59:21.662Z,2.70
2023-04-06T01:01:50.380Z,2.60
2023-04-06T01:04:39.927Z,2.40
2023-04-06T01:07:12.786Z,2.40
2023-04-06T01:09:51.737Z,2.60
2023-04-06T01:12:24.830Z,2.80
2023-04-06T01:14:53.443Z,3.10
2023-04-06T01:17:22.202Z,3.20
2023-04-06T01:19:52.403Z,3.30
2023-04-06T01:22:28.378Z,3.30
2023-04-06T01:25:01.045Z,3.10
2023-04-06T01:27:47.834Z,2.80
2023-04-06T01:30:34.808Z,2.60
2023-04-06T01:33:09.243Z,2.50
2023-04-06T01:36:01.447Z,2.50
2023-04-06T01:38:31.466Z,2.50
2023-04-06T01:41:21.594Z,2.30
2023-04-06T01:43:55.628Z,2.20
2023-04-06T01:46:28.572Z,2.10
2023-04-06T01:48:57.092Z,2.00
2023-04-06T01:51:45.494Z,1.80
2023-04-06T01:54:16.458Z,1.70
2023-04-06T01:57:03.949Z,1.70
2023-04-06T01:59:58.331Z,1.70
2023-04-06T02:02:41.697Z,1.60
2023-04-06T02:05:17.591Z,1.60
2023-04-06T02:07:46.317Z,1.50
2023-04-06T02:10:20.429Z,1.40
2023-04-06T02:12:49.015Z,1.40
2023-04-06T02:15:23.939Z,1.40
2023-04-06T02:17:53.025Z,1.40
2023-04-06T02:20:21.605Z,1.30
2023-04-06T02:22:50.648Z,1.20
2023-04-06T02:25:20.215Z,1.10
2023-04-06T02:27:48.695Z,1.10
2023-04-06T02:30:16.882Z,1.10
2023-04-06T02:32:45.595Z,1.10
2023-04-06T02:35:14.376Z,1.00
2023-04-06T02:37:43.002Z,1.00
2023-04-06T02:40:11.755Z,1.00
2023-04-06T02:42:41.924Z,1.00
2023-04-06T02:45:10.768Z,1.00
2023-04-06T02:47:44.231Z,1.00
2023-04-06T02:50:14.845Z,1.00
2023-04-06T02:52:50.617Z,1.00
2023-04-06T02:55:22.316Z,1.00
2023-04-06T02:57:53.022Z,1.00
2023-04-06T03:00:26.057Z,1.00
2023-04-06T03:02:54.343Z,1.00
2023-04-06T03:05:22.961Z,1.00
2023-04-06T03:07:51.500Z,1.10
2023-04-06T03:10:28.306Z,1.20
2023-04-06T03:12:57.731Z,1.30
2023-04-06T03:15:42.362Z,1.30
2023-04-06T03:18:17.286Z,1.20
2023-04-06T03:20:49.344Z,1.00
2023-04-06T03:23:21.644Z,0.90
2023-04-06T03:25:55.712Z,0.80
2023-04-06T03:28:25.355Z,0.60
2023-04-06T03:30:58.226Z,0.50
2023-04-06T03:33:46.789Z,0.50
2023-04-06T03:36:22.303Z,0.40
2023-04-06T03:38:50.517Z,0.50
2023-04-06T03:41:18.987Z,0.50
2023-04-06T03:43:56.876Z,0.80
2023-04-06T03:46:25.295Z,0.90
2023-04-06T03:48:55.974Z,1.00
2023-04-06T03:51:26.416Z,0.90
2023-04-06T03:53:54.516Z,0.90
2023-04-06T03:56:23.014Z,0.80
2023-04-06T03:58:51.960Z,0.80
2023-04-06T04:01:24.034Z,0.70
2023-04-06T04:03:53.948Z,0.50
2023-04-06T04:06:22.106Z,0.50
2023-04-06T04:08:50.556Z,0.50
2023-04-06T04:11:18.659Z,0.50
2023-04-06T04:13:51.393Z,0.60
2023-04-06T04:16:19.530Z,0.60
2023-04-06T04:18:50.104Z,0.40
2023-04-06T04:21:18.213Z,0.40
2023-04-06T04:23:47.012Z,0.30
2023-04-06T04:26:15.076Z,0.20
2023-04-06T04:28:46.063Z,0.20
2023-04-06T04:31:14.210Z,0.10
2023-04-06T04:33:43.250Z,0.10
2023-04-06T04:36:18.844Z,0.10
2023-04-06T04:38:48.613Z,0.20
2023-04-06T04:41:16.738Z,0.50
2023-04-06T04:43:46.742Z,0.70
2023-04-06T04:46:17.994Z,0.90
2023-04-06T04:48:46.409Z,1.10
2023-04-06T04:51:14.825Z,1.30
2023-04-06T04:54:06.014Z,1.50
2023-04-06T04:56:35.222Z,1.70
2023-04-06T04:59:12.218Z,2.00
2023-04-06T05:01:54.298Z,2.20
2023-04-06T05:04:27.400Z,2.40
2023-04-06T05:07:06.280Z,2.50
2023-04-06T05:09:37.556Z,2.70
2023-04-06T05:12:06.365Z,2.80
2023-04-06T05:14:39.974Z,2.90
2023-04-06T05:17:14.034Z,3.00
2023-04-06T05:19:42.254Z,3.10
2023-04-06T05:22:11.470Z,3.20
2023-04-06T05:24:46.064Z,3.20
2023-04-06T05:27:14.346Z,3.30
2023-04-06T05:29:42.839Z,3.30
2023-04-06T05:32:11.327Z,3.40
2023-04-06T05:34:39.543Z,3.20
2023-04-06T05:37:08.796Z,3.10
2023-04-06T05:39:37.870Z,2.90
2023-04-06T05:42:07.761Z,2.90
2023-04-06T05:44:50.113Z,2.70
2023-04-06T05:47:19.566Z,2.30
2023-04-06T05:49:52.968Z,2.00
2023-04-06T05:52:33.306Z,1.80
2023-04-06T05:55:01.529Z,1.50
2023-04-06T05:57:32.592Z,1.40
2023-04-06T06:00:00.890Z,1.40
2023-04-06T06:02:43.475Z,1.30
2023-04-06T06:05:18.546Z,1.40
2023-04-06T06:07:48.583Z,1.40
2023-04-06T06:10:16.877Z,1.60
2023-04-06T06:12:46.697Z,1.80
2023-04-06T06:15:14.846Z,2.00
2023-04-06T06:17:47.137Z,2.00
2023-04-06T06:20:15.663Z,2.10
2023-04-06T06:22:45.366Z,2.30
2023-04-06T06:25:18.597Z,2.40
2023-04-06T06:27:50.696Z,2.50
2023-04-06T06:30:23.050Z,2.50
2023-04-06T06:32:53.553Z,2.70
2023-04-06T06:35:22.065Z,2.90
2023-04-06T06:37:50.825Z,3.10
2023-04-06T06:40:25.032Z,3.30
2023-04-06T06:42:56.600Z,3.50
2023-04-06T06:45:47.931Z,3.80
2023-04-06T06:48:16.771Z,4.00
2023-04-06T06:50:44.916Z,4.20
2023-04-06T06:53:14.323Z,4.50
2023-04-06T06:55:42.487Z,4.80
2023-04-06T06:58:12.650Z,5.00
2023-04-06T07:00:40.767Z,5.10
2023-04-06T07:03:10.071Z,5.30
2023-04-06T07:05:40.899Z,5.50
2023-04-06T07:08:10.005Z,5.70
2023-04-06T07:10:38.038Z,5.90
2023-04-06T07:13:06.640Z,6.10
2023-04-06T07:15:36.491Z,6.10
2023-04-06T07:18:04.886Z,6.20
2023-04-06T07:20:33.536Z,6.30
2023-04-06T07:23:01.818Z,6.30
2023-04-06T07:25:31.600Z,6.30
2023-04-06T07:27:59.723Z,6.30
2023-04-06T07:30:29.420Z,6.30
2023-04-06T07:33:01.331Z,6.30
2023-04-06T07:35:31.353Z,6.40
2023-04-06T07:37:59.829Z,6.40
2023-04-06T07:40:28.307Z,6.40
2023-04-06T07:42:58.332Z,6.60
2023-04-06T07:45:27.600Z,6.60
2023-04-06T07:47:56.584Z,6.70
2023-04-06T07:50:28.671Z,6.80
2023-04-06T07:52:58.693Z,6.90
2023-04-06T07:55:27.534Z,7.00
2023-04-06T07:57:55.697Z,7.00
2023-04-06T08:00:24.108Z,7.00
2023-04-06T08:02:52.322Z,6.80
2023-04-06T08:05:20.522Z,6.70
2023-04-06T08:07:50.512Z,6.70
2023-04-06T08:10:18.646Z,6.90
2023-04-06T08:12:46.773Z,7.10
2023-04-06T08:15:14.941Z,7.10
2023-04-06T08:17:43.570Z,7.10
2023-04-06T08:20:12.055Z,7.20
2023-04-06T08:22:41.141Z,7.40
2023-04-06T08:25:11.109Z,7.40
2023-04-06T08:27:41.135Z,7.60
2023-04-06T08:30:09.768Z,7.60
2023-04-06T08:32:37.929Z,7.10
2023-04-06T08:35:06.770Z,7.20
2023-04-06T08:37:34.835Z,7.40
2023-04-06T08:40:04.406Z,7.50
2023-04-06T08:42:36.448Z,7.70
2023-04-06T08:45:05.276Z,7.90
2023-04-06T08:47:34.082Z,8.10
2023-04-06T08:50:05.952Z,8.00
2023-04-06T08:52:34.476Z,8.00
2023-04-06T08:55:02.763Z,8.30
2023-04-06T08:57:30.999Z,8.30
2023-04-06T09:00:02.406Z,8.30
2023-04-06T09:02:31.857Z,8.60
2023-04-06T09:05:03.780Z,8.80
2023-04-06T09:07:32.108Z,9.00
2023-04-06T09:10:00.270Z,9.10
2023-04-06T09:12:28.751Z,9.40
2023-04-06T09:14:57.587Z,9.60
2023-04-06T09:17:27.911Z,9.70
2023-04-06T09:19:56.781Z,9.70
2023-04-06T09:22:26.819Z,9.90
2023-04-06T09:24:55.680Z,10.10
2023-04-06T09:27:32.087Z,10.40
2023-04-06T09:30:05.237Z,10.50
2023-04-06T09:32:35.355Z,10.70
2023-04-06T09:35:09.949Z,11.00
2023-04-06T09:37:38.205Z,11.10
2023-04-06T09:40:07.256Z,11.10
2023-04-06T09:42:35.730Z,11.20
2023-04-06T09:45:03.933Z,11.20
2023-04-06T09:47:33.728Z,11.20
2023-04-06T09:50:04.437Z,11.40
2023-04-06T09:52:33.660Z,11.60
2023-04-06T09:55:04.270Z,11.70
2023-04-06T09:57:34.205Z,11.80
2023-04-06T10:00:10.165Z,11.90
2023-04-06T10:02:41.674Z,12.00
2023-04-06T10:05:15.174Z,12.10
2023-04-06T10:07:58.913Z,12.10
2023-04-06T10:10:29.357Z,12.10
2023-04-06T10:12:58.183Z,12.30
2023-04-06T10:15:26.293Z,12.30
2023-04-06T10:17:54.790Z,12.30
2023-04-06T10:20:26.174Z,12.30
2023-04-06T10:22:58.129Z,12.30
2023-04-06T10:25:29.803Z,12.40
2023-04-06T10:28:01.901Z,12.40
2023-04-06T10:30:30.394Z,12.60
2023-04-06T10:32:58.843Z,12.50
2023-04-06T10:35:38.176Z,12.50
2023-04-06T10:38:07.483Z,12.60
2023-04-06T10:40:37.905Z,12.50
2023-04-06T10:43:10.817Z,12.60
2023-04-06T10:45:39.531Z,12.50
2023-04-06T10:48:17.222Z,12.40
2023-04-06T10:50:49.627Z,12.30
2023-04-06T10:53:23.892Z,12.20
2023-04-06T10:55:52.764Z,12.10
2023-04-06T10:58:21.262Z,12.20
2023-04-06T11:00:51.568Z,12.30
2023-04-06T11:03:20.813Z,12.40
2023-04-06T11:05:51.155Z,12.50
2023-04-06T11:08:27.107Z,12.40
2023-04-06T11:11:05.950Z,12.40
2023-04-06T11:13:41.521Z,12.40
2023-04-06T11:16:14.076Z,12.40
2023-04-06T11:18:49.093Z,12.40
2023-04-06T11:21:18.807Z,12.50
2023-04-06T11:23:47.417Z,12.10
2023-04-06T11:26:16.436Z,12.80
2023-04-06T11:28:45.140Z,13.00
2023-04-06T11:31:13.273Z,13.20
2023-04-06T11:33:41.922Z,13.10
2023-04-06T11:36:10.530Z,12.70
2023-04-06T11:38:42.179Z,12.60
2023-04-06T11:41:10.305Z,12.50
2023-04-06T11:43:38.952Z,12.40
2023-04-06T11:46:09.848Z,12.70
2023-04-06T11:48:46.077Z,13.00
2023-04-06T11:51:14.199Z,13.40
2023-04-06T11:53:47.833Z,13.70
2023-04-06T11:56:24.606Z,13.50
2023-04-06T11:58:52.973Z,13.30
2023-04-06T12:01:21.342Z,12.80
2023-04-06T12:03:49.993Z,12.40
2023-04-06T12:06:18.446Z,12.20
2023-04-06T12:08:48.397Z,12.20
2023-04-06T12:11:16.576Z,12.20
2023-04-06T12:13:44.880Z,12.20
2023-04-06T12:16:13.272Z,12.20
2023-04-06T12:18:41.450Z,12.40
2023-04-06T12:21:11.531Z,12.60
2023-04-06T12:23:39.609Z,12.80
2023-04-06T12:26:13.402Z,12.90
2023-04-06T12:28:41.840Z,12.90
2023-04-06T12:31:16.376Z,12.90
2023-04-06T12:33:45.839Z,12.90
2023-04-06T12:36:14.709Z,13.10
2023-04-06T12:38:42.897Z,13.40
2023-04-06T12:41:12.667Z,13.60
2023-04-06T12:43:41.040Z,13.70
2023-04-06T12:46:09.663Z,13.60
2023-04-06T12:48:37.954Z,13.70
2023-04-06T12:51:07.068Z,13.90
2023-04-06T12:53:35.645Z,13.90
2023-04-06T12:56:05.327Z,13.70
2023-04-06T12:58:35.046Z,13.30
2023-04-06T13:01:09.898Z,13.20
2023-04-06T13:03:38.375Z,13.10
2023-04-06T13:06:07.295Z,12.90
2023-04-06T13:08:36.979Z,12.90
2023-04-06T13:11:06.074Z,12.90
2023-04-06T13:13:35.541Z,12.90
2023-04-06T13:16:06.107Z,12.80
2023-04-06T13:18:35.160Z,12.60
2023-04-06T13:21:03.509Z,12.50
2023-04-06T13:23:31.660Z,12.40
2023-04-06T13:26:02.423Z,12.40
2023-04-06T13:28:30.909Z,12.60
2023-04-06T13:31:01.770Z,12.70
2023-04-06T13:33:30.471Z,12.80
2023-04-06T13:35:59.479Z,12.80
2023-04-06T13:38:27.698Z,12.60
2023-04-06T13:40:56.108Z,12.90
2023-04-06T13:43:27.401Z,13.60
2023-04-06T13:45:56.876Z,14.20
2023-04-06T13:48:27.008Z,14.60
2023-04-06T13:50:56.621Z,15.20
2023-04-06T13:53:25.260Z,15.80
2023-04-06T13:55:56.602Z,16.10
2023-04-06T13:58:24.759Z,16.00
2023-04-06T14:00:53.661Z,16.10
2023-04-06T14:03:22.598Z,16.70
2023-04-06T14:05:52.408Z,16.90
2023-04-06T14:08:20.945Z,16.10
2023-04-06T14:10:48.978Z,15.60
2023-04-06T14:13:18.035Z,15.20
2023-04-06T14:15:46.236Z,14.90
2023-04-06T14:18:14.880Z,14.60
2023-04-06T14:20:43.359Z,14.30
2023-04-06T14:23:13.449Z,14.10
2023-04-06T14:25:41.512Z,14.00
2023-04-06T14:28:11.672Z,13.90
2023-04-06T14:30:40.403Z,14.00
2023-04-06T14:33:08.594Z,13.90
2023-04-06T14:35:39.889Z,13.80
2023-04-06T14:38:07.959Z,13.40
2023-04-06T14:40:39.082Z,13.30
2023-04-06T14:43:07.157Z,13.10
2023-04-06T14:45:38.010Z,13.20
2023-04-06T14:48:07.386Z,13.20
2023-04-06T14:50:36.498Z,13.20
2023-04-06T14:53:04.642Z,13.30
2023-04-06T14:55:33.101Z,13.40
2023-04-06T14:58:02.522Z,13.50
2023-04-06T15:00:31.235Z,13.50
2023-04-06T15:02:59.520Z,13.60
2023-04-06T15:05:28.248Z,13.60
2023-04-06T15:07:56.582Z,13.60
2023-04-06T15:10:25.087Z,13.60
2023-04-06T15:12:53.126Z,13.60
2023-04-06T15:15:23.171Z,13.60
2023-04-06T15:17:52.193Z,13.60
2023-04-06T15:20:21.077Z,13.60
2023-04-06T15:22:51.780Z,13.50
2023-04-06T15:25:23.462Z,13.40
2023-04-06T15:27:57.298Z,13.40
2023-04-06T15:30:28.043Z,13.40
2023-04-06T15:32:58.017Z,13.40
2023-04-06T15:35:26.673Z,13.30
2023-04-06T15:37:57.560Z,13.40
2023-04-06T15:40:39.715Z,13.30
2023-04-06T15:43:08.419Z,13.20
2023-04-06T15:45:38.321Z,13.10
2023-04-06T15:48:07.355Z,13.10
2023-04-06T15:50:36.123Z,13.00
2023-04-06T15:53:04.406Z,13.00
2023-04-06T15:55:33.436Z,13.00
2023-04-06T15:58:01.471Z,12.90
2023-04-06T16:00:30.213Z,12.90
2023-04-06T16:02:59.906Z,12.90
2023-04-06T16:05:34.042Z,12.90
2023-04-06T16:08:03.460Z,12.80
2023-04-06T16:10:33.350Z,12.80
2023-04-06T16:13:01.436Z,12.70
2023-04-06T16:15:29.825Z,12.70
2023-04-06T16:17:58.055Z,12.70
2023-04-06T16:20:27.730Z,12.60
2023-04-06T16:22:55.838Z,12.60
2023-04-06T16:25:23.867Z,12.60
2023-04-06T16:27:52.193Z,12.50
2023-04-06T16:30:20.588Z,12.50
2023-04-06T16:32:51.746Z,12.50
2023-04-06T16:35:20.517Z,12.40
2023-04-06T16:37:50.514Z,12.40
2023-04-06T16:40:18.755Z,12.40
2023-04-06T16:42:47.271Z,12.30
2023-04-06T16:45:16.679Z,12.20
2023-04-06T16:47:45.303Z,12.10
2023-04-06T16:50:15.329Z,12.10
2023-04-06T16:52:45.203Z,12.00
2023-04-06T16:55:14.865Z,11.90
2023-04-06T16:57:42.858Z,11.90
2023-04-06T17:03:02.928Z,11.80
2023-04-06T17:05:31.569Z,11.80
2023-04-06T17:08:00.203Z,11.80
2023-04-06T17:10:34.250Z,11.80
2023-04-06T17:13:06.606Z,11.80
2023-04-06T17:15:35.426Z,11.70
2023-04-06T17:18:04.528Z,12.50
2023-04-06T17:20:34.714Z,11.70
2023-04-06T17:23:03.257Z,11.70
2023-04-06T17:25:35.807Z,11.70
2023-04-06T17:28:04.932Z,11.70
2023-04-06T17:30:34.472Z,11.70
2023-04-06T17:33:03.267Z,11.70
2023-04-06T17:35:31.584Z,11.70
2023-04-06T17:37:59.724Z,11.70
2023-04-06T17:40:27.896Z,11.70
2023-04-06T17:42:57.524Z,11.70
2023-04-06T17:45:25.832Z,11.70
2023-04-06T17:47:53.885Z,11.70
2023-04-06T17:50:22.059Z,11.60
2023-04-06T17:52:52.078Z,11.60
2023-04-06T17:55:21.207Z,11.60
2023-04-06T17:57:49.808Z,11.60
2023-04-06T18:00:24.268Z,11.60
2023-04-06T18:02:53.716Z,11.60
2023-04-06T18:05:22.283Z,11.60
2023-04-06T18:07:55.438Z,11.60
2023-04-06T18:10:26.197Z,11.50
2023-04-06T18:12:55.677Z,11.50
2023-04-06T18:15:25.056Z,11.60
2023-04-06T18:17:53.433Z,11.60
2023-04-06T18:20:22.415Z,11.60
2023-04-06T18:25:25.636Z,11.50
2023-04-06T18:27:53.668Z,11.40
2023-04-06T18:30:22.013Z,11.30
2023-04-06T18:32:52.781Z,11.30
2023-04-06T18:35:21.307Z,11.30
2023-04-06T18:37:49.362Z,11.20
2023-04-06T18:40:34.172Z,11.10
2023-04-06T18:43:03.079Z,11.00
2023-04-06T18:45:33.795Z,11.00
2023-04-06T18:48:03.566Z,11.00
2023-04-06T18:50:32.809Z,11.00
2023-04-06T18:53:01.104Z,11.00
2023-04-06T18:55:29.666Z,11.10
2023-04-06T18:57:57.819Z,11.00
2023-04-06T19:00:26.611Z,11.00
2023-04-06T19:02:54.920Z,10.90
2023-04-06T19:05:25.137Z,10.80
2023-04-06T19:07:53.273Z,10.80
2023-04-06T19:10:22.958Z,10.80
2023-04-06T19:12:51.179Z,10.70
2023-04-06T19:15:19.479Z,10.70
2023-04-06T19:17:48.234Z,10.70
2023-04-06T19:20:16.308Z,10.70
2023-04-06T19:22:46.583Z,10.70
2023-04-06T19:25:14.595Z,10.70
2023-04-06T19:27:43.437Z,10.70
2023-04-06T19:30:11.787Z,10.70
2023-04-06T19:32:41.549Z,10.70
2023-04-06T19:35:09.946Z,10.60
2023-04-06T19:37:39.962Z,10.50
2023-04-06T19:40:10.591Z,10.50
2023-04-06T19:42:39.829Z,10.50
2023-04-06T19:45:08.382Z,10.50
2023-04-06T19:47:36.642Z,10.50
2023-04-06T19:50:05.165Z,10.40
2023-04-06T19:52:33.649Z,10.40
2023-04-06T19:55:01.696Z,10.40
2023-04-06T19:57:35.367Z,10.30
2023-04-06T20:00:03.947Z,10.20
2023-04-06T20:02:40.227Z,9.80
2023-04-06T20:05:08.877Z,10.00
2023-04-06T20:07:38.517Z,9.80
2023-04-06T20:10:08.393Z,9.80
2023-04-06T20:12:39.073Z,9.70
2023-04-06T20:15:08.213Z,9.50
2023-04-06T20:17:36.527Z,9.40
2023-04-06T20:20:05.087Z,9.50
2023-04-06T20:22:33.833Z,9.50
2023-04-06T20:25:02.636Z,9.60
2023-04-06T20:27:30.841Z,9.60
2023-04-06T20:30:00.965Z,9.70
2023-04-06T20:32:31.605Z,9.70
2023-04-06T20:35:00.053Z,9.60
2023-04-06T20:37:28.105Z,9.40
2023-04-06T20:39:56.323Z,9.40
2023-04-06T20:42:24.433Z,9.40
2023-04-06T20:44:53.670Z,9.30
2023-04-06T20:47:23.180Z,9.40
2023-04-06T20:49:51.551Z,9.50
2023-04-06T20:52:19.536Z,9.50
2023-04-06T20:54:48.745Z,9.50
2023-04-06T20:57:16.855Z,9.50
2023-04-06T20:59:46.292Z,9.40
2023-04-06T21:02:14.621Z,9.40
2023-04-06T21:04:44.803Z,9.40
2023-04-06T21:07:12.965Z,9.40
2023-04-06T21:09:41.798Z,9.40
2023-04-06T21:12:10.086Z,9.40
2023-04-06T21:14:38.302Z,9.30
2023-04-06T21:17:07.879Z,9.00
2023-04-06T21:19:36.065Z,8.60
2023-04-06T21:22:05.607Z,8.20
2023-04-06T21:24:33.657Z,8.10
2023-04-06T21:27:02.142Z,7.90
2023-04-06T21:29:30.151Z,8.00
2023-04-06T21:31:58.773Z,8.00
2023-04-06T21:34:26.928Z,7.90
2023-04-06T21:36:55.410Z,8.00
2023-04-06T21:39:25.310Z,7.90
2023-04-06T21:41:53.582Z,7.80
2023-04-06T21:44:21.704Z,7.70
2023-04-06T21:46:50.180Z,7.80
2023-04-06T21:49:18.232Z,7.80
2023-04-06T21:51:46.865Z,7.70
2023-04-06T21:54:15.114Z,7.80
2023-04-06T21:56:44.673Z,7.70
2023-04-06T21:59:12.887Z,7.80
2023-04-06T22:01:41.260Z,7.70
2023-04-06T22:04:09.447Z,7.60
2023-04-06T22:06:37.977Z,7.40
2023-04-06T22:09:06.384Z,7.20
2023-04-06T22:11:34.572Z,7.00
2023-04-06T22:14:05.898Z,6.80
2023-04-06T22:16:34.109Z,6.80
2023-04-06T22:19:03.628Z,6.80
2023-04-06T22:21:31.748Z,6.90
2023-04-06T22:23:59.811Z,7.10
2023-04-06T22:26:27.886Z,7.40
2023-04-06T22:28:56.531Z,7.50
2023-04-06T22:31:26.078Z,7.60
2023-04-06T22:33:54.597Z,7.70
2023-04-06T22:36:23.393Z,7.80
2023-04-06T22:38:51.796Z,7.90
2023-04-06T22:41:20.213Z,8.00
2023-04-06T22:43:50.503Z,8.10
2023-04-06T22:46:18.534Z,8.10
2023-04-06T22:48:48.398Z,8.10
2023-04-06T22:51:16.461Z,7.90
2023-04-06T22:53:44.647Z,7.50
2023-04-06T22:56:13.403Z,7.20
2023-04-06T22:58:41.409Z,7.80
2023-04-06T23:01:09.449Z,6.90
2023-04-06T23:03:37.569Z,6.80
2023-04-06T23:06:07.454Z,6.70
2023-04-06T23:08:35.578Z,6.70
2023-04-06T23:11:03.922Z,6.70
2023-04-06T23:13:32.307Z,6.70
2023-04-06T23:16:00.876Z,6.80
2023-04-06T23:18:28.967Z,6.80
2023-04-06T23:20:57.576Z,6.80
2023-04-06T23:23:26.910Z,6.80
2023-04-06T23:25:55.421Z,6.70
2023-04-06T23:28:23.763Z,6.70
2023-04-06T23:30:52.017Z,6.80
2023-04-06T23:33:20.181Z,6.90
2023-04-06T23:35:48.707Z,6.90
2023-04-06T23:38:16.717Z,6.80
2023-04-06T23:40:46.443Z,6.60
2023-04-06T23:43:15.178Z,6.40
2023-04-06T23:45:43.577Z,6.20
2023-04-06T23:48:12.111Z,6.10
2023-04-06T23:50:40.137Z,6.00
2023-04-06T23:53:08.210Z,6.00
2023-04-06T23:55:36.444Z,6.00
2023-04-06T23:58:06.548Z,6.00
